Time;durP1;ratioP1;P1;durP2;ratioP2;P2;SDS_P1;SDS_P2;PMS_P1;PMS_P2;Temp;Humidity;BMP_temperature;BMP_pressure;BME280_temperature;BME280_humidity;BME280_pressure;Samples;Min_cycle;Max_cycle;Signal;HPM_P1;HPM_P2
2022/06/28 00:05:54;;;;;;;;;;;;;;;;;;;;;
2022/06/28 00:10:29;;;;;;;8.20;5.20;;;;;;;25.25;50.67;98913.50;105200;1297;22546;-87
2022/06/28 00:21:37;;;;;;;9.80;5.00;;;;;;;25.08;50.70;98920.59;105233;1285;25238;-86
2022/06/28 00:25:09;;;;;;;;;;;;;;;;;;;;;
2022/06/28 00:31:51;;;;;;;11.20;5.20;;;;;;;24.92;51.26;98947.86;104867;1294;22683;-87
2022/06/28 00:37:37;;;;;;;8.40;4.70;;;;;;;24.84;50.94;98954.48;107224;1274;22585;-92
2022/06/28 00:44:28;;;;;;;;;;;;;;;;;;;;;
2022/06/28 00:47:15;;;;;;;7.70;4.90;;;;;;;24.71;51.42;98960.52;106296;1282;24130;-88
2022/06/28 00:50:12;;;;;;;8.10;4.80;;;;;;;24.67;51.45;98967.75;106048;1284;22556;-92
2022/06/28 00:53:14;;;;;;;9.20;4.70;;;;;;;24.63;51.81;98965.20;105399;1282;22713;-86
2022/06/28 00:56:10;;;;;;;9.30;4.20;;;;;;;24.58;51.96;98960.92;105573;1282;22535;-90
2022/06/28 00:58:58;;;;;;;8.60;4.40;;;;;;;24.53;51.54;98962.99;105253;1284;23409;-91
2022/06/28 01:02:24;;;;;;;8.80;4.50;;;;;;;24.49;51.53;98959.95;105164;1284;25493;-91
2022/06/28 01:05:14;;;;;;;;;;;;;;;;;;;;;
2022/06/28 01:08:03;;;;;;;9.00;4.70;;;;;;;24.33;51.58;98963.42;105798;1282;22593;-88
2022/06/28 01:10:51;;;;;;;8.60;4.30;;;;;;;24.27;51.75;98961.98;105841;1282;22744;-88
2022/06/28 01:13:50;;;;;;;8.00;4.20;;;;;;;24.23;51.70;98965.86;106189;1282;24128;-93
2022/06/28 01:16:42;;;;;;;7.30;3.90;;;;;;;24.18;51.68;98970.32;105752;1282;26544;-89
2022/06/28 01:19:38;;;;;;;10.50;4.50;;;;;;;24.13;51.97;98962.27;105542;1282;25252;-90
2022/06/28 01:23:02;;;;;;;8.20;4.70;;;;;;;24.06;51.67;98958.86;106248;1275;25548;-90
2022/06/28 01:26:23;;;;;;;;;;;;;;;;;;;;;
2022/06/28 01:29:09;;;;;;;8.70;4.10;;;;;;;23.89;51.98;98973.36;107401;1274;22715;-93
2022/06/28 01:32:39;;;;;;;8.60;5.10;;;;;;;23.80;52.05;98977.42;106231;1274;25206;-89
2022/06/28 01:35:35;;;;;;;9.90;4.40;;;;;;;23.73;52.27;98978.54;106197;1274;22575;-93
2022/06/28 01:38:28;;;;;;;8.40;4.00;;;;;;;23.67;52.29;98981.81;106417;1275;22606;-87
2022/06/28 01:41:44;;;;;;;9.80;4.30;;;;;;;23.60;52.51;98982.79;106322;1274;24210;-85
2022/06/28 01:44:41;;;;;;;7.30;4.10;;;;;;;23.51;52.69;98993.77;106502;1273;22599;-88
2022/06/28 01:47:58;;;;;;;8.90;4.90;;;;;;;23.40;53.02;99008.56;106185;1274;22626;-87
2022/06/28 01:50:52;;;;;;;8.80;4.40;;;;;;;23.27;53.72;99022.52;105825;1274;22655;-87
2022/06/28 01:53:38;;;;;;;9.30;5.20;;;;;;;23.16;53.52;99020.63;106135;1276;25599;-89
2022/06/28 01:56:25;;;;;;;7.70;4.40;;;;;;;23.08;53.54;99033.44;106108;1276;22476;-87
2022/06/28 01:59:36;;;;;;;;;;;;;;;;;;;;;
2022/06/28 02:02:32;;;;;;;8.80;3.70;;;;;;;22.89;53.96;99041.83;105937;1274;25311;-88
2022/06/28 02:05:28;;;;;;;7.30;3.30;;;;;;;22.79;54.07;99041.54;106201;1273;22652;-83
2022/06/28 02:08:11;;;;;;;10.50;3.20;;;;;;;22.69;54.55;99052.02;106129;1273;24219;-83
2022/06/28 02:11:02;;;;;;;8.00;3.20;;;;;;;22.57;55.44;99059.16;106121;1273;25244;-85
2022/06/28 02:13:48;;;;;;;5.90;3.10;;;;;;;22.43;55.37;99075.41;105996;1274;24400;-86
2022/06/28 02:16:32;;;;;;;;;;;;;;;;;;;;;
2022/06/28 02:19:41;;;;;;;6.50;3.00;;;;;;;22.31;54.92;99094.23;106032;1274;23023;-84
2022/06/28 02:22:15;;;;;;;5.90;2.70;;;;;;;22.31;54.78;99087.19;106067;1274;26577;-84
2022/06/28 02:25:10;;;;;;;8.70;3.50;;;;;;;22.27;55.09;99092.87;105980;1274;25562;-89
2022/06/28 02:28:19;;;;;;;7.30;3.20;;;;;;;22.21;55.16;99108.20;105904;1273;24369;-89
2022/06/28 02:32:13;;;;;;;7.90;3.30;;;;;;;22.18;55.26;99124.84;106210;1273;24281;-84
2022/06/28 02:42:37;;;;;;;8.40;4.50;;;;;;;21.94;56.11;99131.80;106138;1273;25317;-88
2022/06/28 02:45:25;;;;;;;10.10;4.10;;;;;;;21.84;56.50;99118.33;105347;1285;22703;-88
2022/06/28 02:48:00;;;;;;;8.60;3.80;;;;;;;21.70;56.72;99121.48;105571;1282;22553;-85
2022/06/28 02:51:27;;;;;;;;;;;;;;;;;;;;;
2022/06/28 02:54:28;;;;;;;9.90;5.10;;;;;;;21.38;57.04;99142.11;105580;1282;23291;-85
2022/06/28 02:57:21;;;;;;;9.30;4.70;;;;;;;21.27;57.30;99142.11;105453;1282;24260;-89
2022/06/28 03:00:23;;;;;;;10.20;5.40;;;;;;;21.19;57.23;99130.39;105476;1282;22715;-86
2022/06/28 03:03:16;;;;;;;10.00;5.30;;;;;;;21.13;57.57;99129.36;105355;1282;25234;-86
2022/06/28 03:06:03;;;;;;;;;;;;;;;;;;;;;
2022/06/28 03:08:35;;;;;;;7.90;5.00;;;;;;;21.00;58.48;99138.23;105500;1282;24199;-87
2022/06/28 03:11:39;;;;;;;;;;;;;;;;;;;;;
2022/06/28 03:15:15;;;;;;;;;;;;;;;;;;;;;
2022/06/28 03:18:24;;;;;;;;;;;;;;;;;;;;;
2022/06/28 03:21:14;;;;;;;8.70;4.80;;;;;;;20.83;58.59;99183.41;104993;1285;25310;-86
2022/06/28 03:24:41;;;;;;;7.00;3.90;;;;;;;20.83;58.82;99190.34;105777;1281;22595;-86
2022/06/28 03:28:07;;;;;;;;;;;;;;;;;;;;;
2022/06/28 03:31:20;;;;;;;;;;;;;;;;;;;;;
2022/06/28 03:34:19;;;;;;;;;;;;;;;;;;;;;
2022/06/28 03:38:03;;;;;;;6.50;3.40;;;;;;;20.88;58.82;99221.73;105447;1283;26545;-90
2022/06/28 03:41:15;;;;;;;;;;;;;;;;;;;;;
2022/06/28 03:44:33;;;;;;;;;;;;;;;;;;;;;
2022/06/28 03:48:00;;;;;;;6.90;3.60;;;;;;;21.18;58.87;99160.44;105546;1284;22862;-87
2022/06/28 03:51:26;;;;;;;8.20;3.60;;;;;;;21.04;58.83;99102.80;105217;1282;25414;-87
2022/06/28 03:55:06;;;;;;;7.90;3.60;;;;;;;20.92;58.99;99066.23;105605;1282;25277;-87
2022/06/28 03:58:10;;;;;;;7.30;3.30;;;;;;;20.85;59.25;99056.55;105692;1282;24297;-86
2022/06/28 04:01:13;;;;;;;;;;;;;;;;;;;;;
2022/06/28 04:03:43;;;;;;;7.80;3.80;;;;;;;20.74;59.38;99036.29;105701;1282;25609;-87
2022/06/28 04:06:30;;;;;;;10.90;3.60;;;;;;;20.68;59.42;99023.95;105502;1282;25253;-87
2022/06/28 04:09:11;;;;;;;7.70;3.10;;;;;;;20.68;59.50;99032.02;105651;1284;25514;-90
2022/06/28 04:11:44;;;;;;;7.40;3.30;;;;;;;20.65;59.52;99053.77;105648;1282;25403;-86
2022/06/28 04:14:19;;;;;;;10.70;4.00;;;;;;;20.61;59.58;99055.36;105627;1282;25228;-85
2022/06/28 04:16:50;;;;;;;5.70;2.70;;;;;;;20.59;59.72;99070.35;105713;1282;25355;-84
2022/06/28 04:19:32;;;;;;;7.00;3.40;;;;;;;20.57;60.09;99084.58;105636;1282;22713;-87
2022/06/28 04:22:12;;;;;;;7.00;2.90;;;;;;;20.54;59.84;99082.34;105382;1282;24216;-85
2022/06/28 04:24:46;;;;;;;7.20;3.60;;;;;;;20.53;60.23;99082.23;105268;1282;23923;-85
2022/06/28 04:27:25;;;;;;;6.40;3.60;;;;;;;20.54;60.00;99089.55;105585;1279;22720;-86
2022/06/28 04:29:59;;;;;;;6.90;3.40;;;;;;;20.55;60.37;99089.42;106010;1277;22562;-83
2022/06/28 04:32:45;;;;;;;6.60;3.50;;;;;;;20.55;60.23;99092.88;105929;1275;22546;-84
2022/06/28 04:35:13;;;;;;;7.50;4.00;;;;;;;20.57;60.37;99107.63;105889;1276;22478;-84
2022/06/28 04:37:48;;;;;;;10.00;4.60;;;;;;;20.59;60.19;99110.91;105895;1276;24614;-87
2022/06/28 04:40:24;;;;;;;7.70;4.40;;;;;;;20.67;60.35;99106.20;105845;1276;24221;-89
2022/06/28 04:43:16;;;;;;;8.20;4.70;;;;;;;20.81;60.52;99110.92;105972;1276;22540;-87
2022/06/28 04:45:52;;;;;;;10.00;5.40;;;;;;;20.92;60.45;99116.68;105959;1277;24248;-88
2022/06/28 04:48:23;;;;;;;9.00;5.40;;;;;;;21.01;60.35;99118.89;105961;1276;24649;-87
2022/06/28 04:51:10;;;;;;;11.10;5.90;;;;;;;21.04;60.29;99113.64;105933;1277;24373;-87
2022/06/28 04:53:48;;;;;;;10.60;5.10;;;;;;;21.08;60.41;99125.05;106168;1279;22602;-88
2022/06/28 04:56:25;;;;;;;9.80;4.80;;;;;;;21.07;60.32;99128.01;105758;1277;25238;-88
2022/06/28 04:59:05;;;;;;;9.80;4.50;;;;;;;21.11;60.51;99129.54;105929;1277;25329;-89
2022/06/28 05:01:46;;;;;;;10.10;4.30;;;;;;;21.21;60.50;99142.52;106027;1276;22544;-88
2022/06/28 05:04:19;;;;;;;6.60;3.90;;;;;;;21.34;60.46;99157.38;105953;1276;25543;-86
2022/06/28 05:07:08;;;;;;;8.30;4.10;;;;;;;21.42;60.44;99177.75;106122;1276;22632;-86
2022/06/28 05:09:53;;;;;;;7.70;4.30;;;;;;;21.41;60.30;99185.16;105974;1276;23035;-87
2022/06/28 05:12:25;;;;;;;7.70;4.30;;;;;;;21.35;60.57;99188.88;106463;1276;22565;-87
2022/06/28 05:14:59;;;;;;;9.10;4.00;;;;;;;21.37;60.54;99190.02;105890;1279;24367;-86
2022/06/28 05:17:43;;;;;;;9.00;3.90;;;;;;;21.39;60.48;99187.41;105931;1278;24250;-87
2022/06/28 05:20:21;;;;;;;7.60;4.50;;;;;;;21.31;60.61;99208.55;105903;1279;24405;-85
2022/06/28 05:22:56;;;;;;;8.70;4.10;;;;;;;21.10;60.62;99226.14;106039;1276;22657;-86
2022/06/28 05:25:46;;;;;;;7.20;4.00;;;;;;;20.99;60.89;99234.99;105859;1277;22548;-87
2022/06/28 05:28:21;;;;;;;8.40;4.10;;;;;;;20.97;60.94;99227.46;105950;1277;25094;-88
2022/06/28 05:30:56;;;;;;;7.50;3.70;;;;;;;20.97;61.03;99221.23;106385;1276;22495;-87
2022/06/28 05:33:26;;;;;;;9.70;4.00;;;;;;;21.00;61.06;99231.93;105920;1276;25503;-89
2022/06/28 05:36:02;;;;;;;8.60;3.70;;;;;;;21.07;61.03;99241.19;105968;1277;25661;-89
2022/06/28 05:38:45;;;;;;;7.50;3.20;;;;;;;21.07;60.90;99239.13;105938;1275;22760;-87
2022/06/28 05:41:17;;;;;;;9.00;3.50;;;;;;;21.06;60.82;99237.08;106085;1276;22576;-86
2022/06/28 05:43:55;;;;;;;8.80;3.50;;;;;;;21.08;60.92;99234.13;106091;1276;22697;-90
2022/06/28 05:46:39;;;;;;;8.40;3.60;;;;;;;21.05;61.04;99238.07;106082;1276;25515;-86
2022/06/28 05:49:19;;;;;;;7.20;2.80;;;;;;;21.05;61.12;99244.08;106042;1274;22762;-88
2022/06/28 05:52:00;;;;;;;9.80;3.30;;;;;;;21.07;61.33;99253.23;106021;1277;24283;-88
2022/06/28 05:54:43;;;;;;;;;;;;;;;;;;;;;
2022/06/28 05:58:07;;;;;;;8.10;3.10;;;;;;;21.10;61.30;99245.59;105991;1277;23177;-85
2022/06/28 06:00:53;;;;;;;9.20;3.20;;;;;;;21.17;61.11;99251.06;106045;1276;22733;-85
2022/06/28 06:03:32;;;;;;;7.60;3.10;;;;;;;21.25;61.24;99255.98;105887;1278;24404;-87
2022/06/28 06:06:13;;;;;;;8.60;3.30;;;;;;;21.49;61.12;99252.15;106103;1276;25341;-86
2022/06/28 06:09:04;;;;;;;;;;;;;;;;;;;;;
2022/06/28 06:11:50;;;;;;;8.50;3.70;;;;;;;21.63;60.73;99259.20;106013;1277;24338;-85
2022/06/28 06:14:48;;;;;;;7.60;3.30;;;;;;;21.70;60.78;99258.96;106057;1274;25345;-86
2022/06/28 06:17:22;;;;;;;8.10;3.50;;;;;;;21.94;60.79;99263.55;106034;1277;22556;-85
2022/06/28 06:20:02;;;;;;;7.30;3.80;;;;;;;22.14;60.51;99265.80;106017;1274;24296;-86
2022/06/28 06:23:40;;;;;;;;;;;;;;;;;;;;;
2022/06/28 06:26:45;;;;;;;9.30;4.40;;;;;;;22.06;60.69;99277.58;105986;1274;22705;-85
2022/06/28 06:30:06;;;;;;;8.50;4.60;;;;;;;21.98;60.63;99278.91;106410;1277;22600;-89
2022/06/28 06:33:24;;;;;;;9.50;4.10;;;;;;;21.79;60.66;99279.96;106006;1275;22548;-85
2022/06/28 06:36:55;;;;;;;11.10;4.30;;;;;;;21.68;60.86;99280.24;106023;1274;25485;-83
2022/06/28 06:39:50;;;;;;;9.50;5.10;;;;;;;21.66;61.04;99277.16;106060;1276;25360;-85
2022/06/28 06:42:40;;;;;;;10.00;4.80;;;;;;;21.87;61.12;99285.05;106093;1276;22544;-86
2022/06/28 06:45:27;;;;;;;7.70;4.40;;;;;;;22.04;61.01;99291.39;105760;1279;22708;-86
2022/06/28 06:48:19;;;;;;;8.40;5.10;;;;;;;22.25;60.88;99297.86;106412;1276;25473;-86
2022/06/28 06:51:11;;;;;;;11.30;4.40;;;;;;;22.84;60.96;99301.04;106110;1277;24355;-86
2022/06/28 06:55:07;;;;;;;9.40;4.10;;;;;;;23.28;60.59;99304.52;106119;1274;24257;-86
2022/06/28 06:57:40;;;;;;;9.30;5.40;;;;;;;23.65;60.39;99297.81;104413;1294;24372;-86
2022/06/28 07:00:50;;;;;;;;;;;;;;;;;;;;;
2022/06/28 07:03:47;;;;;;;;;;;;;;;;;;;;;
2022/06/28 07:06:49;;;;;;;11.90;5.50;;;;;;;24.05;59.64;99309.59;104556;1291;24232;-90
2022/06/28 07:09:47;;;;;;;11.60;5.30;;;;;;;23.76;60.11;99322.14;104671;1290;26610;-91
2022/06/28 07:12:17;;;;;;;9.40;5.30;;;;;;;23.79;60.22;99326.12;104367;1290;22579;-86
2022/06/28 07:15:38;;;;;;;;;;;;;;;;;;;;;
2022/06/28 07:19:05;;;;;;;9.70;5.90;;;;;;;23.25;60.42;99334.06;104638;1294;22575;-88
2022/06/28 07:22:34;;;;;;;8.20;4.90;;;;;;;23.06;60.23;99342.71;104265;1294;24329;-86
2022/06/28 07:25:26;;;;;;;;;;;;;;;;;;;;;
2022/06/28 07:28:29;;;;;;;10.60;6.30;;;;;;;22.53;60.39;99355.54;104418;1294;22767;-85
2022/06/28 07:31:45;;;;;;;;;;;;;;;;;;;;;
2022/06/28 07:34:56;;;;;;;12.50;6.10;;;;;;;21.80;60.89;99376.49;104493;1287;22560;-85
2022/06/28 07:38:38;;;;;;;11.80;8.00;;;;;;;21.44;61.01;99382.02;105275;1287;22595;-86
2022/06/28 07:42:36;;;;;;;13.80;8.60;;;;;;;21.09;61.60;99393.68;104093;1300;22595;-91
2022/06/28 07:46:09;;;;;;;;;;;;;;;;;;;;;
2022/06/28 07:53:14;;;;;;;13.90;9.10;;;;;;;20.38;62.08;99418.43;102972;1312;22674;-84
2022/06/28 07:57:11;;;;;;;14.10;9.10;;;;;;;20.30;62.09;99422.40;103245;1306;24362;-84
2022/06/28 08:00:23;;;;;;;;;;;;;;;;;;;;;
2022/06/28 08:04:05;;;;;;;;;;;;;;;;;;;;;
2022/06/28 08:06:43;;;;;;;;;;;;;;;;;;;;;
2022/06/28 08:09:56;;;;;;;;;;;;;;;;;;;;;
2022/06/28 08:13:33;;;;;;;11.80;7.00;;;;;;;20.47;62.20;99432.81;102993;1313;25593;-85
2022/06/28 08:16:16;;;;;;;11.60;6.50;;;;;;;20.84;62.05;99430.78;103046;1311;25793;-84
2022/06/28 08:19:19;;;;;;;;;;;;;;;;;;;;;
2022/06/28 08:22:28;;;;;;;;;;;;;;;;;;;;;
2022/06/28 08:25:20;;;;;;;10.60;6.60;;;;;;;22.68;60.71;99418.09;104141;1296;22677;-85
2022/06/28 08:28:24;;;;;;;11.40;6.50;;;;;;;22.96;60.50;99416.65;103897;1297;22566;-86
2022/06/28 08:31:13;;;;;;;12.10;6.00;;;;;;;23.30;60.92;99415.09;104497;1293;22551;-79
2022/06/28 08:33:55;;;;;;;10.10;6.60;;;;;;;23.51;60.06;99417.85;104948;1293;23506;-84
2022/06/28 08:37:23;;;;;;;11.00;6.50;;;;;;;23.24;59.96;99416.40;104588;1284;24263;-87
2022/06/28 08:40:44;;;;;;;;;;;;;;;;;;;;;
2022/06/28 08:43:29;;;;;;;10.30;6.70;;;;;;;22.34;60.63;99417.13;105687;1275;24208;-81
2022/06/28 08:46:39;;;;;;;11.40;6.70;;;;;;;22.09;60.55;99415.44;106364;1278;22554;-90
2022/06/28 08:50:41;;;;;;;13.10;6.50;;;;;;;21.81;60.88;99428.08;105895;1277;24740;-85
2022/06/28 08:53:20;;;;;;;11.80;6.10;;;;;;;21.58;61.14;99431.77;106545;1277;24265;-86
2022/06/28 08:56:00;;;;;;;11.40;7.80;;;;;;;21.59;61.12;99432.36;105760;1281;24232;-86
2022/06/28 08:58:33;;;;;;;13.00;6.80;;;;;;;21.65;61.21;99434.86;105880;1277;25346;-84
2022/06/28 09:01:18;;;;;;;13.80;7.50;;;;;;;21.67;61.20;99436.88;105838;1278;22555;-86
2022/06/28 09:04:03;;;;;;;10.90;6.70;;;;;;;21.61;61.13;99442.26;106093;1277;22550;-89
2022/06/28 09:06:47;;;;;;;10.90;6.90;;;;;;;21.50;61.03;99442.60;105965;1277;22629;-87
2022/06/28 09:09:54;;;;;;;11.30;7.40;;;;;;;21.48;61.14;99445.86;105974;1277;22660;-85
2022/06/28 09:12:32;;;;;;;10.30;6.80;;;;;;;21.56;61.26;99450.45;106468;1277;26521;-86
2022/06/28 09:15:42;;;;;;;13.10;6.40;;;;;;;21.74;61.20;99458.30;105998;1275;22564;-87
2022/06/28 09:18:23;;;;;;;10.10;6.60;;;;;;;21.97;61.17;99457.23;106029;1278;24215;-83
2022/06/28 09:21:25;;;;;;;;;;;;;;;;;;;;;
2022/06/28 09:24:50;;;;;;;11.80;6.60;;;;;;;22.53;60.88;99452.30;106166;1275;22876;-87
2022/06/28 09:28:02;;;;;;;;;;;;;;;;;;;;;
2022/06/28 09:31:15;;;;;;;9.20;5.90;;;;;;;23.71;60.84;99457.81;105632;1284;22589;-88
2022/06/28 09:34:12;;;;;;;8.70;5.40;;;;;;;24.13;59.95;99451.19;105648;1284;25481;-86
2022/06/28 09:37:05;;;;;;;9.80;5.70;;;;;;;24.17;59.11;99452.34;105645;1284;22768;-88
2022/06/28 09:40:50;;;;;;;;;;;;;;;;;;;;;
2022/06/28 09:43:31;;;;;;;8.00;4.90;;;;;;;24.78;59.77;99436.39;104178;1297;22716;-90
2022/06/28 09:46:29;;;;;;;10.50;5.90;;;;;;;24.99;59.21;99438.48;104055;1297;22644;-91
2022/06/28 09:50:11;;;;;;;8.50;4.70;;;;;;;24.79;58.96;99439.90;104143;1297;25679;-85
2022/06/28 09:53:07;;;;;;;7.50;4.50;;;;;;;24.33;58.70;99445.78;104102;1297;25418;-86
2022/06/28 09:55:51;;;;;;;8.80;5.50;;;;;;;23.92;58.35;99451.80;104072;1297;24140;-89
2022/06/28 09:58:32;;;;;;;8.80;5.40;;;;;;;23.56;58.84;99456.80;104167;1297;23357;-86
2022/06/28 10:01:30;;;;;;;8.80;5.00;;;;;;;23.40;58.92;99463.48;104126;1297;22722;-86
2022/06/28 10:04:38;;;;;;;;;;;;;;;;;;;;;
2022/06/28 10:07:26;;;;;;;9.00;5.00;;;;;;;23.54;58.95;99464.59;104340;1294;22652;-87
2022/06/28 10:10:25;;;;;;;9.60;4.90;;;;;;;23.81;59.16;99468.01;104379;1294;23081;-89
2022/06/28 10:16:57;;;;;;;;;;;;;;;;;;;;;
2022/06/28 10:20:05;;;;;;;9.30;5.30;;;;;;;24.79;57.47;99474.52;104581;1287;24300;-88
2022/06/28 10:23:11;;;;;;;8.90;5.00;;;;;;;24.42;56.83;99478.14;105308;1285;22672;-89
2022/06/28 10:26:26;;;;;;;8.60;4.80;;;;;;;24.66;57.58;99471.89;104906;1290;22643;-86
2022/06/28 10:29:16;;;;;;;7.80;4.60;;;;;;;25.24;58.04;99464.45;104706;1290;24047;-87
2022/06/28 10:33:04;;;;;;;7.80;5.10;;;;;;;25.74;57.26;99467.13;105076;1288;25327;-87
2022/06/28 10:36:16;;;;;;;9.00;5.20;;;;;;;25.49;56.08;99465.23;105033;1290;22575;-89
2022/06/28 10:39:44;;;;;;;;;;;;;;;;;;;;;
2022/06/28 10:42:54;;;;;;;8.00;4.60;;;;;;;25.61;56.96;99469.55;104795;1287;26090;-87
2022/06/28 10:46:13;;;;;;;10.40;5.00;;;;;;;25.78;56.74;99469.21;104780;1288;25319;-87
2022/06/28 10:49:17;;;;;;;7.10;4.30;;;;;;;25.78;55.87;99466.77;104930;1290;22758;-85
2022/06/28 10:53:32;;;;;;;8.70;5.00;;;;;;;25.68;55.83;99470.66;105358;1287;22545;-91
2022/06/28 10:57:00;;;;;;;;;;;;;;;;;;;;;
2022/06/28 10:59:57;;;;;;;10.00;5.10;;;;;;;25.52;55.61;99465.21;104857;1288;24229;-86
2022/06/28 11:03:28;;;;;;;;;;;;;;;;;;;;;
2022/06/28 11:06:28;;;;;;;9.60;5.70;;;;;;;25.15;55.88;99456.29;105288;1287;24305;-88
2022/06/28 11:10:33;;;;;;;9.00;5.40;;;;;;;25.16;55.94;99457.90;105620;1285;24866;-89
2022/06/28 11:14:03;;;;;;;9.90;6.30;;;;;;;25.28;55.19;99456.77;105129;1287;25743;-88
2022/06/28 11:18:14;;;;;;;9.10;6.50;;;;;;;25.03;55.41;99457.32;104443;1293;22707;-86
2022/06/28 11:20:59;;;;;;;9.70;6.50;;;;;;;24.94;55.71;99458.56;104546;1294;24312;-86
2022/06/28 11:23:58;;;;;;;11.00;5.70;;;;;;;25.00;55.68;99462.95;104400;1290;22677;-87
2022/06/28 11:31:46;;;;;;;9.80;6.50;;;;;;;24.42;55.17;99469.86;104424;1297;22681;-85
2022/06/28 11:34:54;;;;;;;13.60;6.80;;;;;;;24.44;55.80;99472.31;104543;1290;23353;-89
2022/06/28 11:42:31;;;;;;;12.80;6.60;;;;;;;24.62;55.94;99469.19;105484;1284;24411;-88
2022/06/28 11:46:22;;;;;;;10.30;5.80;;;;;;;24.70;55.79;99469.29;101507;1285;22924;-88
2022/06/28 11:49:25;;;;;;;11.40;6.20;;;;;;;24.67;55.63;99465.05;104367;1296;25628;-90
2022/06/28 11:52:58;;;;;;;10.00;6.80;;;;;;;24.67;54.94;99468.88;104166;1297;23982;-87
2022/06/28 11:56:15;;;;;;;;;;;;;;;;;;;;;
2022/06/28 12:00:15;;;;;;;;;;;;;;;;;;;;;
2022/06/28 12:04:02;;;;;;;11.10;6.60;;;;;;;24.71;55.31;99472.45;103843;1303;25369;-88
2022/06/28 12:07:47;;;;;;;9.80;6.60;;;;;;;24.95;54.82;99471.23;103605;1302;25585;-82
2022/06/28 12:10:50;;;;;;;9.50;6.70;;;;;;;24.90;54.09;99467.50;103108;1309;22760;-87
2022/06/28 12:14:14;;;;;;;;;;;;;;;;;;;;;
2022/06/28 12:17:37;;;;;;;;;;;;;;;;;;;;;
2022/06/28 12:20:39;;;;;;;11.30;6.20;;;;;;;25.49;55.20;99467.30;102418;1318;22636;-89
2022/06/28 12:24:19;;;;;;;9.60;6.50;;;;;;;25.86;54.37;99467.39;102628;1318;22756;-88
2022/06/28 12:26:59;;;;;;;9.30;6.00;;;;;;;26.00;54.01;99465.13;102861;1312;24375;-87
2022/06/28 12:29:28;;;;;;;10.20;6.30;;;;;;;25.97;53.78;99466.07;102862;1312;22811;-88
2022/06/28 12:32:02;;;;;;;9.00;6.20;;;;;;;26.02;53.91;99460.42;102981;1311;22844;-87
2022/06/28 12:34:37;;;;;;;8.90;6.30;;;;;;;26.13;53.78;99460.08;102748;1313;22630;-87
2022/06/28 12:37:11;;;;;;;10.50;6.20;;;;;;;26.37;54.00;99453.23;103145;1308;22676;-87
2022/06/28 12:40:24;;;;;;;9.60;6.10;;;;;;;26.73;53.62;99441.18;103471;1300;24297;-88
2022/06/28 12:43:38;;;;;;;9.30;6.50;;;;;;;26.78;53.57;99432.94;103769;1300;23973;-85
2022/06/28 12:46:35;;;;;;;8.50;6.20;;;;;;;26.89;53.25;99428.72;103870;1300;26611;-86
2022/06/28 12:49:22;;;;;;;9.40;6.00;;;;;;;26.90;53.47;99429.17;104694;1294;23205;-89
2022/06/28 12:52:15;;;;;;;10.00;6.00;;;;;;;26.97;53.01;99426.05;104754;1290;24262;-89
2022/06/28 12:55:25;;;;;;;10.20;5.70;;;;;;;26.78;52.96;99423.20;105287;1285;22671;-89
2022/06/28 12:58:21;;;;;;;10.40;6.10;;;;;;;26.48;52.58;99428.06;105280;1284;25333;-86
2022/06/28 13:01:36;;;;;;;9.50;6.70;;;;;;;26.27;52.49;99429.24;105244;1284;25477;-85
2022/06/28 13:04:17;;;;;;;10.60;6.20;;;;;;;25.96;52.58;99435.29;105764;1274;25200;-89
2022/06/28 13:06:56;;;;;;;11.30;6.10;;;;;;;25.88;52.78;99438.13;106152;1274;22636;-83
2022/06/28 13:09:26;;;;;;;10.60;6.70;;;;;;;25.76;52.42;99428.75;105937;1276;22999;-86
2022/06/28 13:11:53;;;;;;;9.50;6.60;;;;;;;25.66;52.69;99426.28;105852;1277;22561;-87
2022/06/28 13:14:26;;;;;;;10.60;6.60;;;;;;;25.63;52.68;99422.23;105987;1276;25499;-88
2022/06/28 13:17:23;;;;;;;10.30;7.30;;;;;;;25.73;52.89;99420.23;106021;1275;22560;-86
2022/06/28 13:20:13;;;;;;;;;;;;;;;;;;;;;
2022/06/28 13:22:49;;;;;;;10.00;6.40;;;;;;;26.06;52.61;99406.98;106159;1274;25411;-86
2022/06/28 13:25:19;;;;;;;9.90;7.20;;;;;;;26.08;52.57;99406.95;106029;1274;24296;-91
2022/06/28 13:28:12;;;;;;;9.20;6.20;;;;;;;26.28;52.61;99415.72;106290;1274;22568;-87
2022/06/28 13:30:52;;;;;;;8.20;5.60;;;;;;;26.27;52.01;99416.39;106000;1274;25423;-87
2022/06/28 13:33:33;;;;;;;10.70;6.30;;;;;;;26.24;51.84;99410.86;105963;1274;25349;-89
2022/06/28 13:36:12;;;;;;;8.50;5.80;;;;;;;25.97;51.68;99416.15;105901;1274;22997;-89
2022/06/28 13:38:41;;;;;;;8.30;5.70;;;;;;;25.69;51.69;99416.95;105983;1275;25483;-90
2022/06/28 13:41:27;;;;;;;9.40;6.20;;;;;;;25.61;52.04;99413.34;106243;1274;22647;-89
2022/06/28 13:44:17;;;;;;;;;;;;;;;;;;;;;
2022/06/28 13:47:01;;;;;;;9.30;6.00;;;;;;;25.74;51.84;99405.79;106110;1274;22567;-89
2022/06/28 13:49:36;;;;;;;8.90;5.30;;;;;;;25.86;51.80;99402.09;106100;1276;26012;-87
2022/06/28 13:52:24;;;;;;;8.90;5.50;;;;;;;26.04;51.84;99400.31;105994;1276;26687;-87
2022/06/28 13:55:03;;;;;;;9.20;5.70;;;;;;;26.20;51.81;99394.93;105898;1276;22583;-85
2022/06/28 13:57:46;;;;;;;9.20;4.80;;;;;;;26.11;51.28;99395.98;106225;1274;22850;-86
2022/06/28 14:00:36;;;;;;;8.20;5.30;;;;;;;25.92;51.35;99395.02;106088;1274;24297;-88
2022/06/28 14:03:26;;;;;;;;;;;;;;;;;;;;;
2022/06/28 14:06:13;;;;;;;7.90;5.20;;;;;;;25.58;51.44;99394.92;105975;1276;23345;-87
2022/06/28 14:08:56;;;;;;;8.90;4.50;;;;;;;25.50;51.77;99394.98;106120;1275;25609;-88
2022/06/28 14:11:35;;;;;;;8.60;5.00;;;;;;;25.50;51.75;99394.36;106152;1274;23904;-89
2022/06/28 14:14:16;;;;;;;9.70;4.90;;;;;;;25.58;51.83;99393.88;106141;1275;24235;-89
2022/06/28 14:16:49;;;;;;;7.60;4.40;;;;;;;25.67;51.90;99389.45;106005;1275;23166;-88
2022/06/28 14:20:01;;;;;;;8.80;5.00;;;;;;;25.70;51.47;99383.82;106232;1274;25299;-88
2022/06/28 14:22:38;;;;;;;7.60;4.30;;;;;;;25.64;51.41;99382.18;106594;1274;24824;-93
2022/06/28 14:25:14;;;;;;;9.40;4.50;;;;;;;25.65;51.09;99387.77;105863;1274;22536;-90
2022/06/28 14:28:28;;;;;;;9.20;4.30;;;;;;;25.55;51.41;99391.58;106074;1274;24253;-88
2022/06/28 14:31:31;;;;;;;7.90;4.10;;;;;;;25.54;51.28;99386.41;106831;1276;23374;-87
2022/06/28 14:34:24;;;;;;;7.50;4.50;;;;;;;25.58;51.27;99386.05;106157;1274;24168;-90
2022/06/28 14:36:54;;;;;;;6.50;4.20;;;;;;;25.70;51.62;99383.79;105799;1274;25612;-88
2022/06/28 14:39:40;;;;;;;6.50;3.50;;;;;;;25.82;51.24;99377.83;106186;1274;22750;-90
2022/06/28 14:42:23;;;;;;;9.30;4.20;;;;;;;25.78;50.97;99375.98;106135;1274;22708;-90
2022/06/28 14:45:11;;;;;;;7.90;3.90;;;;;;;25.81;51.20;99372.14;106179;1274;22557;-92
2022/06/28 14:48:02;;;;;;;10.10;3.70;;;;;;;25.92;51.17;99367.48;106067;1276;22594;-89
2022/06/28 14:50:51;;;;;;;6.90;3.90;;;;;;;25.92;50.88;99353.09;106192;1273;22637;-91
2022/06/28 14:53:24;;;;;;;6.70;3.50;;;;;;;26.00;50.66;99349.34;106194;1274;24209;-89
2022/06/28 14:56:08;;;;;;;6.60;3.70;;;;;;;26.02;50.68;99348.27;106016;1274;22709;-93
2022/06/28 14:58:46;;;;;;;6.70;3.80;;;;;;;26.12;50.83;99344.48;106152;1273;22553;-91
2022/06/28 15:01:22;;;;;;;6.00;3.30;;;;;;;26.19;50.45;99344.33;106163;1273;24189;-88
2022/06/28 15:04:30;;;;;;;7.20;3.70;;;;;;;26.19;50.35;99335.58;106407;1274;25473;-92
2022/06/28 15:07:49;;;;;;;6.10;3.30;;;;;;;26.51;50.61;99330.07;106537;1274;24240;-90
2022/06/28 15:10:38;;;;;;;6.20;3.20;;;;;;;26.66;50.09;99325.98;105989;1274;22799;-90
2022/06/28 15:13:40;;;;;;;5.20;3.10;;;;;;;26.62;50.40;99321.80;105910;1274;22534;-88
2022/06/28 15:16:20;;;;;;;7.40;3.50;;;;;;;26.41;49.76;99317.27;105920;1274;25331;-88
2022/06/28 15:19:34;;;;;;;;;;;;;;;;;;;;;
2022/06/28 15:32:39;;;;;;;8.80;4.50;;;;;;;26.21;50.03;99310.54;106275;1273;22653;-85
2022/06/28 15:35:35;;;;;;;8.50;4.80;;;;;;;26.39;49.91;99308.66;106126;1274;24183;-90
2022/06/28 15:39:04;;;;;;;;;;;;;;;;;;;;;
2022/06/28 15:42:35;;;;;;;;;;;;;;;;;;;;;
2022/06/28 15:46:02;;;;;;;;;;;;;;;;;;;;;
2022/06/28 15:49:01;;;;;;;8.70;5.20;;;;;;;27.17;49.50;99309.23;106236;1280;25669;-92
2022/06/28 15:54:44;;;;;;;6.90;4.40;;;;;;;26.88;49.07;99309.23;105491;1280;25541;-90
2022/06/28 15:57:49;;;;;;;6.90;4.40;;;;;;;26.60;49.42;99312.52;105794;1281;22632;-91
2022/06/28 16:00:58;;;;;;;7.50;4.40;;;;;;;26.47;49.28;99309.80;105797;1279;23599;-89
2022/06/28 16:03:33;;;;;;;7.90;4.90;;;;;;;26.32;49.37;99309.13;105550;1281;22540;-89
2022/06/28 16:06:10;;;;;;;8.60;5.60;;;;;;;26.26;49.02;99307.27;105727;1280;22695;-89
2022/06/28 16:08:38;;;;;;;8.70;5.10;;;;;;;26.21;49.11;99305.36;105895;1280;22991;-90
2022/06/28 16:11:08;;;;;;;7.70;5.10;;;;;;;26.32;49.51;99302.70;105670;1282;23929;-88